sensor_id;sensor_type;location;lat;lon;timestamp;temperature;humidity
3980;DHT22;2004;52.452;13.120;2023-07-22T00:00:15;14.30;99.90
3980;DHT22;2004;52.452;13.120;2023-07-22T00:08:05;14.40;99.90
3980;DHT22;2004;52.452;13.120;2023-07-22T00:15:57;14.40;99.90
3980;DHT22;2004;52.452;13.120;2023-07-22T00:23:49;14.40;99.90
3980;DHT22;2004;52.452;13.120;2023-07-22T00:31:40;14.40;99.90
3980;DHT22;2004;52.452;13.120;2023-07-22T00:39:31;14.30;99.90
3980;DHT22;2004;52.452;13.120;2023-07-22T00:47:22;14.40;99.90
3980;DHT22;2004;52.452;13.120;2023-07-22T00:55:13;14.40;99.90
3980;DHT22;2004;52.452;13.120;2023-07-22T01:03:04;14.40;99.90
3980;DHT22;2004;52.452;13.120;2023-07-22T01:10:55;14.40;99.90
3980;DHT22;2004;52.452;13.120;2023-07-22T01:18:45;14.40;99.90
3980;DHT22;2004;52.452;13.120;2023-07-22T01:26:36;14.40;99.90
3980;DHT22;2004;52.452;13.120;2023-07-22T01:34:27;14.40;99.90
3980;DHT22;2004;52.452;13.120;2023-07-22T01:42:21;14.40;99.90
3980;DHT22;2004;52.452;13.120;2023-07-22T01:50:12;14.30;99.90
3980;DHT22;2004;52.452;13.120;2023-07-22T01:58:03;14.30;99.90
3980;DHT22;2004;52.452;13.120;2023-07-22T02:06:00;14.30;99.90
3980;DHT22;2004;52.452;13.120;2023-07-22T02:13:51;14.30;99.90
3980;DHT22;2004;52.452;13.120;2023-07-22T02:21:41;14.20;99.90
3980;DHT22;2004;52.452;13.120;2023-07-22T02:29:32;14.20;99.90
3980;DHT22;2004;52.452;13.120;2023-07-22T02:37:23;14.10;99.90
3980;DHT22;2004;52.452;13.120;2023-07-22T02:45:13;14.10;99.90
3980;DHT22;2004;52.452;13.120;2023-07-22T02:53:04;14.10;99.90
3980;DHT22;2004;52.452;13.120;2023-07-22T03:00:54;14.00;99.90
3980;DHT22;2004;52.452;13.120;2023-07-22T03:08:45;14.00;99.90
3980;DHT22;2004;52.452;13.120;2023-07-22T03:16:38;13.90;99.90
3980;DHT22;2004;52.452;13.120;2023-07-22T03:24:28;13.90;99.90
3980;DHT22;2004;52.452;13.120;2023-07-22T03:32:19;13.90;99.90
3980;DHT22;2004;52.452;13.120;2023-07-22T03:40:11;13.80;99.90
3980;DHT22;2004;52.452;13.120;2023-07-22T03:48:13;13.80;99.90
3980;DHT22;2004;52.452;13.120;2023-07-22T03:56:03;13.80;99.90
3980;DHT22;2004;52.452;13.120;2023-07-22T04:03:54;13.70;99.90
3980;DHT22;2004;52.452;13.120;2023-07-22T04:11:44;13.70;99.90
3980;DHT22;2004;52.452;13.120;2023-07-22T04:19:35;13.70;99.90
3980;DHT22;2004;52.452;13.120;2023-07-22T04:27:26;13.80;99.90
3980;DHT22;2004;52.452;13.120;2023-07-22T04:35:17;14.00;99.90
3980;DHT22;2004;52.452;13.120;2023-07-22T04:43:07;14.20;99.90
3980;DHT22;2004;52.452;13.120;2023-07-22T04:50:58;14.10;99.90
3980;DHT22;2004;52.452;13.120;2023-07-22T04:58:48;14.20;99.90
3980;DHT22;2004;52.452;13.120;2023-07-22T05:06:39;14.20;99.90
3980;DHT22;2004;52.452;13.120;2023-07-22T05:14:31;14.20;99.90
3980;DHT22;2004;52.452;13.120;2023-07-22T05:22:21;14.20;99.90
3980;DHT22;2004;52.452;13.120;2023-07-22T05:30:12;14.30;99.90
3980;DHT22;2004;52.452;13.120;2023-07-22T05:38:02;14.40;99.90
3980;DHT22;2004;52.452;13.120;2023-07-22T05:45:54;14.50;99.90
3980;DHT22;2004;52.452;13.120;2023-07-22T05:53:45;14.70;99.90
3980;DHT22;2004;52.452;13.120;2023-07-22T06:01:37;14.90;99.90
3980;DHT22;2004;52.452;13.120;2023-07-22T06:09:28;15.10;99.90
3980;DHT22;2004;52.452;13.120;2023-07-22T06:17:19;15.20;99.90
3980;DHT22;2004;52.452;13.120;2023-07-22T06:25:10;15.30;99.90
3980;DHT22;2004;52.452;13.120;2023-07-22T06:33:01;15.40;99.90
3980;DHT22;2004;52.452;13.120;2023-07-22T06:40:55;15.30;99.90
3980;DHT22;2004;52.452;13.120;2023-07-22T06:48:45;15.40;99.90
3980;DHT22;2004;52.452;13.120;2023-07-22T06:56:36;15.50;99.90
3980;DHT22;2004;52.452;13.120;2023-07-22T07:04:26;15.60;99.90
3980;DHT22;2004;52.452;13.120;2023-07-22T07:12:17;15.70;99.90
3980;DHT22;2004;52.452;13.120;2023-07-22T07:20:08;15.80;99.90
3980;DHT22;2004;52.452;13.120;2023-07-22T07:27:59;15.90;99.90
3980;DHT22;2004;52.452;13.120;2023-07-22T07:35:49;16.00;99.90
3980;DHT22;2004;52.452;13.120;2023-07-22T07:43:41;16.10;99.90
3980;DHT22;2004;52.452;13.120;2023-07-22T07:51:32;16.10;99.90
3980;DHT22;2004;52.452;13.120;2023-07-22T07:59:22;16.20;99.90
3980;DHT22;2004;52.452;13.120;2023-07-22T08:07:16;16.30;99.90
3980;DHT22;2004;52.452;13.120;2023-07-22T08:15:08;16.50;99.90
3980;DHT22;2004;52.452;13.120;2023-07-22T08:22:59;16.70;99.90
3980;DHT22;2004;52.452;13.120;2023-07-22T08:30:49;17.00;99.90
3980;DHT22;2004;52.452;13.120;2023-07-22T08:38:41;17.10;99.90
3980;DHT22;2004;52.452;13.120;2023-07-22T08:46:33;17.10;99.90
3980;DHT22;2004;52.452;13.120;2023-07-22T08:54:25;17.00;99.90
3980;DHT22;2004;52.452;13.120;2023-07-22T09:02:16;17.00;99.90
3980;DHT22;2004;52.452;13.120;2023-07-22T09:10:08;17.10;99.90
3980;DHT22;2004;52.452;13.120;2023-07-22T09:17:59;17.30;99.90
3980;DHT22;2004;52.452;13.120;2023-07-22T09:25:49;17.40;99.90
3980;DHT22;2004;52.452;13.120;2023-07-22T09:33:41;17.60;99.90
3980;DHT22;2004;52.452;13.120;2023-07-22T09:41:32;17.90;99.90
3980;DHT22;2004;52.452;13.120;2023-07-22T09:49:23;18.10;99.90
3980;DHT22;2004;52.452;13.120;2023-07-22T09:57:13;18.20;99.90
3980;DHT22;2004;52.452;13.120;2023-07-22T10:05:05;18.30;99.90
3980;DHT22;2004;52.452;13.120;2023-07-22T10:12:57;18.50;99.90
3980;DHT22;2004;52.452;13.120;2023-07-22T10:20:48;18.70;99.90
3980;DHT22;2004;52.452;13.120;2023-07-22T10:28:40;19.00;99.90
3980;DHT22;2004;52.452;13.120;2023-07-22T10:36:33;19.10;99.90
3980;DHT22;2004;52.452;13.120;2023-07-22T10:44:25;19.00;97.50
3980;DHT22;2004;52.452;13.120;2023-07-22T10:52:37;19.00;98.50
3980;DHT22;2004;52.452;13.120;2023-07-22T11:00:30;19.10;95.70
3980;DHT22;2004;52.452;13.120;2023-07-22T11:08:39;19.00;97.70
3980;DHT22;2004;52.452;13.120;2023-07-22T11:16:30;19.20;97.50
3980;DHT22;2004;52.452;13.120;2023-07-22T11:24:23;19.40;95.60
3980;DHT22;2004;52.452;13.120;2023-07-22T11:32:18;19.70;94.10
3980;DHT22;2004;52.452;13.120;2023-07-22T11:40:12;20.00;93.50
3980;DHT22;2004;52.452;13.120;2023-07-22T11:48:09;20.30;92.20
3980;DHT22;2004;52.452;13.120;2023-07-22T11:56:02;20.50;91.50
3980;DHT22;2004;52.452;13.120;2023-07-22T12:03:55;20.40;89.60
3980;DHT22;2004;52.452;13.120;2023-07-22T12:11:46;20.20;90.00
3980;DHT22;2004;52.452;13.120;2023-07-22T12:19:50;20.40;89.70
3980;DHT22;2004;52.452;13.120;2023-07-22T12:27:41;20.80;88.90
3980;DHT22;2004;52.452;13.120;2023-07-22T12:35:31;20.90;85.00
3980;DHT22;2004;52.452;13.120;2023-07-22T12:43:22;20.90;87.10
3980;DHT22;2004;52.452;13.120;2023-07-22T12:51:13;20.80;84.20
3980;DHT22;2004;52.452;13.120;2023-07-22T12:59:04;21.10;85.90
3980;DHT22;2004;52.452;13.120;2023-07-22T13:06:54;21.10;82.60
3980;DHT22;2004;52.452;13.120;2023-07-22T13:14:45;20.90;83.70
3980;DHT22;2004;52.452;13.120;2023-07-22T13:22:36;20.80;83.10
3980;DHT22;2004;52.452;13.120;2023-07-22T13:30:26;20.90;82.90
3980;DHT22;2004;52.452;13.120;2023-07-22T13:38:17;21.20;84.00
3980;DHT22;2004;52.452;13.120;2023-07-22T13:46:09;21.50;80.90
3980;DHT22;2004;52.452;13.120;2023-07-22T13:53:59;21.40;80.40
3980;DHT22;2004;52.452;13.120;2023-07-22T14:01:50;21.20;79.80
3980;DHT22;2004;52.452;13.120;2023-07-22T14:09:40;21.10;81.80
3980;DHT22;2004;52.452;13.120;2023-07-22T14:17:31;21.00;80.80
3980;DHT22;2004;52.452;13.120;2023-07-22T14:25:23;20.90;79.70
3980;DHT22;2004;52.452;13.120;2023-07-22T14:33:13;20.90;80.70
3980;DHT22;2004;52.452;13.120;2023-07-22T14:41:04;20.90;79.00
3980;DHT22;2004;52.452;13.120;2023-07-22T14:48:55;20.90;78.90
3980;DHT22;2004;52.452;13.120;2023-07-22T14:56:45;20.80;79.40
3980;DHT22;2004;52.452;13.120;2023-07-22T15:04:36;20.70;80.50
3980;DHT22;2004;52.452;13.120;2023-07-22T15:12:26;20.50;82.50
3980;DHT22;2004;52.452;13.120;2023-07-22T15:20:17;20.50;82.50
3980;DHT22;2004;52.452;13.120;2023-07-22T15:28:08;20.60;82.00
3980;DHT22;2004;52.452;13.120;2023-07-22T15:35:58;20.90;80.70
3980;DHT22;2004;52.452;13.120;2023-07-22T15:43:49;21.10;81.60
3980;DHT22;2004;52.452;13.120;2023-07-22T15:51:39;21.30;78.80
3980;DHT22;2004;52.452;13.120;2023-07-22T15:59:31;21.30;76.40
3980;DHT22;2004;52.452;13.120;2023-07-22T16:07:22;21.20;77.20
3980;DHT22;2004;52.452;13.120;2023-07-22T16:15:12;21.10;78.30
3980;DHT22;2004;52.452;13.120;2023-07-22T16:23:04;21.20;80.40
3980;DHT22;2004;52.452;13.120;2023-07-22T16:30:55;21.30;78.00
3980;DHT22;2004;52.452;13.120;2023-07-22T16:38:45;21.20;79.80
3980;DHT22;2004;52.452;13.120;2023-07-22T16:46:36;21.10;79.50
3980;DHT22;2004;52.452;13.120;2023-07-22T16:54:27;21.10;79.80
3980;DHT22;2004;52.452;13.120;2023-07-22T17:02:20;21.10;80.40
3980;DHT22;2004;52.452;13.120;2023-07-22T17:10:10;21.10;77.10
3980;DHT22;2004;52.452;13.120;2023-07-22T17:18:01;21.10;78.00
3980;DHT22;2004;52.452;13.120;2023-07-22T17:25:52;21.10;80.20
3980;DHT22;2004;52.452;13.120;2023-07-22T17:33:42;21.00;76.90
3980;DHT22;2004;52.452;13.120;2023-07-22T17:41:33;20.90;81.90
3980;DHT22;2004;52.452;13.120;2023-07-22T17:49:23;20.90;86.80
3980;DHT22;2004;52.452;13.120;2023-07-22T17:57:14;20.80;80.40
3980;DHT22;2004;52.452;13.120;2023-07-22T18:05:05;20.70;90.50
3980;DHT22;2004;52.452;13.120;2023-07-22T18:12:56;20.60;91.50
3980;DHT22;2004;52.452;13.120;2023-07-22T18:20:46;20.50;91.00
3980;DHT22;2004;52.452;13.120;2023-07-22T18:28:37;20.40;92.80
3980;DHT22;2004;52.452;13.120;2023-07-22T18:36:27;20.20;92.20
3980;DHT22;2004;52.452;13.120;2023-07-22T18:44:19;20.10;92.10
3980;DHT22;2004;52.452;13.120;2023-07-22T18:52:10;19.90;94.20
3980;DHT22;2004;52.452;13.120;2023-07-22T19:00:00;19.70;93.20
3980;DHT22;2004;52.452;13.120;2023-07-22T19:07:51;19.50;94.70
3980;DHT22;2004;52.452;13.120;2023-07-22T19:15:46;19.30;95.70
3980;DHT22;2004;52.452;13.120;2023-07-22T19:23:39;19.10;95.80
3980;DHT22;2004;52.452;13.120;2023-07-22T19:31:29;18.90;95.80
3980;DHT22;2004;52.452;13.120;2023-07-22T19:39:21;18.70;96.40
3980;DHT22;2004;52.452;13.120;2023-07-22T19:47:12;18.50;97.50
3980;DHT22;2004;52.452;13.120;2023-07-22T19:55:02;18.30;99.10
3980;DHT22;2004;52.452;13.120;2023-07-22T20:02:53;18.10;99.90
3980;DHT22;2004;52.452;13.120;2023-07-22T20:10:43;17.90;99.90
3980;DHT22;2004;52.452;13.120;2023-07-22T20:18:34;17.80;99.90
3980;DHT22;2004;52.452;13.120;2023-07-22T20:26:25;17.70;99.90
3980;DHT22;2004;52.452;13.120;2023-07-22T20:34:15;17.60;99.90
3980;DHT22;2004;52.452;13.120;2023-07-22T20:42:06;17.60;99.90
3980;DHT22;2004;52.452;13.120;2023-07-22T20:49:56;17.50;99.90
3980;DHT22;2004;52.452;13.120;2023-07-22T20:57:47;17.40;99.90
3980;DHT22;2004;52.452;13.120;2023-07-22T21:05:37;17.30;99.90
3980;DHT22;2004;52.452;13.120;2023-07-22T21:13:28;17.30;99.90
3980;DHT22;2004;52.452;13.120;2023-07-22T21:21:20;17.30;99.90
3980;DHT22;2004;52.452;13.120;2023-07-22T21:29:10;17.20;99.90
3980;DHT22;2004;52.452;13.120;2023-07-22T21:37:01;17.30;99.90
3980;DHT22;2004;52.452;13.120;2023-07-22T21:44:51;17.30;99.90
3980;DHT22;2004;52.452;13.120;2023-07-22T21:52:42;17.30;99.90
3980;DHT22;2004;52.452;13.120;2023-07-22T22:00:32;17.30;99.90
3980;DHT22;2004;52.452;13.120;2023-07-22T22:08:23;17.20;99.90
3980;DHT22;2004;52.452;13.120;2023-07-22T22:16:13;17.20;99.90
3980;DHT22;2004;52.452;13.120;2023-07-22T22:24:04;17.30;99.90
3980;DHT22;2004;52.452;13.120;2023-07-22T22:31:55;17.30;99.90
3980;DHT22;2004;52.452;13.120;2023-07-22T22:39:45;17.30;99.90
3980;DHT22;2004;52.452;13.120;2023-07-22T22:47:36;17.30;99.90
3980;DHT22;2004;52.452;13.120;2023-07-22T22:55:26;17.30;99.90
3980;DHT22;2004;52.452;13.120;2023-07-22T23:03:17;17.30;99.90
3980;DHT22;2004;52.452;13.120;2023-07-22T23:11:15;17.20;99.90
3980;DHT22;2004;52.452;13.120;2023-07-22T23:19:07;17.30;99.90
3980;DHT22;2004;52.452;13.120;2023-07-22T23:26:58;17.30;99.90
3980;DHT22;2004;52.452;13.120;2023-07-22T23:34:52;17.40;99.90
3980;DHT22;2004;52.452;13.120;2023-07-22T23:42:47;17.40;99.90
3980;DHT22;2004;52.452;13.120;2023-07-22T23:50:38;17.50;99.90
3980;DHT22;2004;52.452;13.120;2023-07-22T23:58:28;17.50;99.90
